Time;durP1;ratioP1;P1;durP2;ratioP2;P2;SDS_P1;SDS_P2;PMS_P1;PMS_P2;Temp;Humidity;BMP_temperature;BMP_pressure;BME280_temperature;BME280_humidity;BME280_pressure;Samples;Min_cycle;Max_cycle;Signal;HPM_P1;HPM_P2
2021/09/26 00:00:46;;;;;;;13.30;8.07;;;21.30;21.50;;;;;;5096078;28;20163;-80
2021/09/26 00:03:12;;;;;;;11.97;9.47;;;21.40;21.70;;;;;;5093896;28;20176;-79
2021/09/26 00:05:38;;;;;;;13.43;9.73;;;21.30;21.10;;;;;;5093813;28;20265;-84
2021/09/26 00:08:04;;;;;;;11.07;9.50;;;21.30;21.40;;;;;;5099208;28;20671;-83
2021/09/26 00:10:30;;;;;;;10.30;8.97;;;21.10;26.20;;;;;;5102666;28;20216;-77
2021/09/26 00:12:56;;;;;;;10.73;9.40;;;21.30;26.10;;;;;;5103825;28;20205;-77
2021/09/26 00:15:22;;;;;;;11.17;8.87;;;21.10;27.70;;;;;;5101908;28;20181;-75
2021/09/26 00:17:49;;;;;;;11.40;9.27;;;21.10;28.70;;;;;;5107571;28;20214;-75
2021/09/26 00:20:17;;;;;;;12.50;8.70;;;21.20;29.50;;;;;;5088271;28;20238;-81
2021/09/26 00:22:43;;;;;;;9.97;8.67;;;21.20;29.70;;;;;;5096849;28;20167;-82
2021/09/26 00:25:11;;;;;;;12.23;9.10;;;21.30;29.70;;;;;;5094026;28;20166;-79
2021/09/26 00:27:38;;;;;;;8.97;8.07;;;21.30;29.70;;;;;;5094184;28;20166;-75
2021/09/26 00:30:06;;;;;;;9.87;8.70;;;21.20;31.00;;;;;;5094882;28;20633;-83
2021/09/26 00:32:35;;;;;;;10.83;8.30;;;21.30;31.30;;;;;;5093447;28;20691;-83
2021/09/26 00:35:04;;;;;;;11.30;9.23;;;21.30;34.40;;;;;;5095700;28;20226;-74
2021/09/26 00:37:29;;;;;;;10.43;7.93;;;21.20;37.70;;;;;;5098069;28;20199;-75
2021/09/26 00:39:55;;;;;;;10.33;8.43;;;21.00;43.10;;;;;;5095533;28;20170;-83
2021/09/26 00:42:21;;;;;;;11.13;9.00;;;20.90;47.30;;;;;;5094503;28;20253;-82
2021/09/26 00:44:47;;;;;;;11.50;9.03;;;20.90;47.60;;;;;;5093650;28;20157;-83
2021/09/26 00:47:12;;;;;;;14.10;9.33;;;20.90;49.70;;;;;;5093456;28;20182;-79
2021/09/26 00:49:38;;;;;;;11.20;9.27;;;21.00;48.80;;;;;;5093048;28;20178;-78
2021/09/26 00:52:04;;;;;;;10.63;8.20;;;20.90;51.80;;;;;;5093177;28;20172;-81
2021/09/26 00:54:29;;;;;;;11.43;8.90;;;20.70;53.80;;;;;;5093137;28;20249;-75
2021/09/26 00:56:57;;;;;;;9.90;8.90;;;20.80;53.60;;;;;;5092977;28;20189;-78
2021/09/26 00:59:22;;;;;;;10.47;8.53;;;20.80;55.20;;;;;;5093073;28;20170;-77
2021/09/26 01:01:49;;;;;;;9.77;8.77;;;20.60;58.30;;;;;;5093425;28;20633;-81
2021/09/26 01:04:18;;;;;;;11.23;8.53;;;20.60;61.00;;;;;;5092624;28;20166;-78
2021/09/26 01:06:55;;;;;;;10.97;9.17;;;20.30;65.70;;;;;;5093285;28;20217;-83
2021/09/26 01:09:33;;;;;;;10.40;8.20;;;20.30;67.70;;;;;;5074942;28;20192;-79
2021/09/26 01:12:05;;;;;;;10.17;8.60;;;20.20;69.90;;;;;;5093423;28;20184;-79
2021/09/26 01:14:40;;;;;;;10.53;8.47;;;20.20;71.00;;;;;;5093279;28;20172;-79
2021/09/26 01:17:30;;;;;;;10.10;8.20;;;20.20;71.80;;;;;;5096585;28;20280;-80
2021/09/26 01:20:15;;;;;;;11.17;8.27;;;20.20;73.30;;;;;;5095853;28;20221;-75
2021/09/26 01:22:56;;;;;;;11.20;8.37;;;20.20;74.90;;;;;;5079565;28;20173;-75
2021/09/26 01:26:12;;;;;;;11.87;9.30;;;20.20;75.10;;;;;;5094583;28;20169;-82
2021/09/26 01:29:02;;;;;;;10.47;8.60;;;20.10;75.80;;;;;;5066869;28;20184;-77
2021/09/26 01:31:32;;;;;;;11.40;8.80;;;20.20;76.30;;;;;;5100325;28;20709;-82
2021/09/26 01:34:23;;;;;;;10.07;8.90;;;20.10;76.60;;;;;;5103477;28;20243;-80
2021/09/26 01:37:26;;;;;;;11.63;9.10;;;20.10;76.80;;;;;;5075405;28;20208;-75
2021/09/26 01:40:06;;;;;;;12.90;9.03;;;20.00;78.40;;;;;;5092968;28;20177;-77
2021/09/26 01:42:42;;;;;;;10.97;8.77;;;19.90;81.40;;;;;;5093126;28;20169;-76
2021/09/26 01:45:31;;;;;;;10.30;9.20;;;19.90;82.40;;;;;;5096138;28;20211;-82
2021/09/26 01:48:23;;;;;;;10.77;9.53;;;19.80;84.00;;;;;;5095640;28;20266;-82
2021/09/26 01:50:52;;;;;;;11.60;9.47;;;19.80;84.60;;;;;;5093153;28;20184;-77
2021/09/26 01:53:21;;;;;;;12.57;9.60;;;19.80;87.10;;;;;;5096515;28;20620;-81
2021/09/26 01:55:50;;;;;;;14.33;10.27;;;19.70;91.80;;;;;;5078231;28;20243;-81
2021/09/26 01:58:17;;;;;;;12.30;10.10;;;19.60;93.80;;;;;;5078096;28;20215;-81
2021/09/26 02:00:43;;;;;;;13.17;10.07;;;19.60;95.00;;;;;;5096525;28;20632;-81
2021/09/26 02:03:11;;;;;;;12.97;10.57;;;19.60;95.90;;;;;;5078235;28;20179;-81
2021/09/26 02:05:41;;;;;;;13.87;9.90;;;19.60;96.20;;;;;;5078018;28;20164;-80
2021/09/26 02:08:07;;;;;;;15.13;10.53;;;19.60;96.50;;;;;;5097090;28;20180;-82
2021/09/26 02:10:35;;;;;;;15.80;10.20;;;19.50;97.20;;;;;;5101870;28;20631;-76
2021/09/26 02:13:03;;;;;;;12.37;10.53;;;19.50;97.50;;;;;;5081192;28;20268;-80
2021/09/26 02:15:30;;;;;;;12.50;10.63;;;19.70;97.50;;;;;;5083635;28;20182;-75
2021/09/26 02:17:58;;;;;;;11.50;9.87;;;19.70;97.20;;;;;;5101303;28;20200;-75
2021/09/26 02:20:25;;;;;;;13.70;11.20;;;19.70;97.20;;;;;;5104676;28;20175;-76
2021/09/26 02:22:53;;;;;;;11.33;10.23;;;19.70;97.60;;;;;;5107457;28;20168;-76
2021/09/26 02:25:20;;;;;;;12.30;10.63;;;19.70;97.70;;;;;;5096912;28;20168;-82
2021/09/26 02:27:47;;;;;;;13.43;10.77;;;19.70;98.00;;;;;;5097029;28;20173;-82
2021/09/26 02:30:13;;;;;;;13.50;10.37;;;19.70;98.10;;;;;;5096628;28;20165;-82
2021/09/26 02:32:40;;;;;;;12.17;10.50;;;19.60;98.50;;;;;;5101253;28;20220;-80
2021/09/26 02:35:07;;;;;;;12.57;10.30;;;19.60;98.90;;;;;;5091378;28;20168;-80
2021/09/26 02:37:33;;;;;;;12.37;10.37;;;19.50;99.10;;;;;;5080081;28;20215;-79
2021/09/26 02:40:01;;;;;;;11.20;9.70;;;19.50;99.30;;;;;;5095820;28;20176;-81
2021/09/26 02:42:44;;;;;;;14.97;10.57;;;19.40;99.30;;;;;;5096497;28;20176;-83
2021/09/26 02:45:22;;;;;;;11.17;9.97;;;19.40;99.40;;;;;;5101527;28;20175;-78
2021/09/26 02:48:09;;;;;;;13.73;10.60;;;19.40;99.70;;;;;;5111172;28;20148;-80
2021/09/26 02:50:36;;;;;;;11.83;10.63;;;19.30;99.90;;;;;;5113859;28;20273;-77
2021/09/26 02:53:03;;;;;;;12.07;10.77;;;19.40;99.90;;;;;;5115612;28;20148;-75
2021/09/26 02:55:30;;;;;;;12.93;10.30;;;19.40;99.90;;;;;;5103216;28;20176;-77
2021/09/26 02:57:56;;;;;;;12.73;10.67;;;19.50;99.90;;;;;;5097794;28;20192;-82
2021/09/26 03:00:41;;;;;;;12.87;10.63;;;19.60;99.80;;;;;;5095687;28;20647;-81
2021/09/26 03:03:15;;;;;;;13.70;11.20;;;19.60;99.50;;;;;;5095378;28;20266;-83
2021/09/26 03:05:42;;;;;;;10.80;9.70;;;19.60;99.50;;;;;;5095395;28;20176;-83
2021/09/26 03:08:09;;;;;;;11.10;9.83;;;19.60;99.70;;;;;;5095127;28;20180;-82
2021/09/26 03:10:35;;;;;;;12.83;10.63;;;19.60;99.20;;;;;;5103168;28;20179;-76
2021/09/26 03:13:02;;;;;;;13.30;9.80;;;19.60;99.20;;;;;;5107554;28;20176;-76
2021/09/26 03:15:28;;;;;;;12.03;10.43;;;19.60;98.60;;;;;;5099546;28;20643;-78
2021/09/26 03:17:53;;;;;;;13.27;10.30;;;19.70;98.60;;;;;;5096176;28;20283;-75
2021/09/26 03:20:57;;;;;;;10.73;9.23;;;19.70;98.40;;;;;;5100485;28;20169;-76
2021/09/26 03:23:24;;;;;;;10.40;9.30;;;19.60;98.10;;;;;;5096355;28;20233;-79
2021/09/26 03:25:49;;;;;;;11.17;9.70;;;19.50;98.20;;;;;;5098236;28;20175;-75
2021/09/26 03:28:15;;;;;;;10.90;9.70;;;19.40;98.70;;;;;;5079373;28;20171;-76
2021/09/26 03:30:41;;;;;;;12.00;9.70;;;19.30;99.20;;;;;;5097988;28;20205;-78
2021/09/26 03:33:07;;;;;;;13.10;9.97;;;19.40;99.50;;;;;;5095183;28;20157;-76
2021/09/26 03:35:34;;;;;;;11.10;9.90;;;19.40;99.20;;;;;;5095330;28;20571;-75
2021/09/26 03:38:00;;;;;;;11.00;9.33;;;19.40;99.40;;;;;;5094891;28;20226;-76
2021/09/26 03:40:26;;;;;;;12.70;10.33;;;19.40;99.40;;;;;;5095623;28;20159;-83
2021/09/26 03:42:51;;;;;;;11.10;9.77;;;19.30;99.60;;;;;;5077377;28;20168;-83
2021/09/26 03:45:18;;;;;;;11.27;10.07;;;19.30;99.90;;;;;;5095232;28;20164;-73
2021/09/26 03:47:45;;;;;;;12.37;9.97;;;19.30;99.90;;;;;;5097143;28;20167;-75
2021/09/26 03:50:11;;;;;;;15.77;10.20;;;19.30;99.90;;;;;;5094680;28;20167;-76
2021/09/26 03:52:36;;;;;;;12.77;9.63;;;19.30;99.90;;;;;;5096264;28;20163;-75
2021/09/26 03:55:04;;;;;;;11.00;9.80;;;19.30;99.90;;;;;;5095937;28;20790;-79
2021/09/26 03:57:30;;;;;;;11.20;10.10;;;19.30;99.90;;;;;;5094527;28;20215;-82
2021/09/26 03:59:56;;;;;;;13.47;10.10;;;19.30;99.90;;;;;;5094988;28;20164;-79
2021/09/26 04:02:21;;;;;;;13.37;10.00;;;19.30;99.90;;;;;;5095592;28;20165;-77
2021/09/26 04:04:47;;;;;;;10.70;9.70;;;19.20;99.90;;;;;;5094864;28;20525;-76
2021/09/26 04:07:13;;;;;;;12.77;10.37;;;19.20;99.90;;;;;;5093484;28;20174;-77
2021/09/26 04:09:38;;;;;;;12.30;10.50;;;19.20;99.90;;;;;;5094317;28;20177;-83
2021/09/26 04:12:04;;;;;;;12.63;11.30;;;19.10;99.90;;;;;;5095228;28;20160;-82
2021/09/26 04:14:30;;;;;;;11.27;10.03;;;19.10;99.90;;;;;;5096400;28;20525;-79
2021/09/26 04:16:59;;;;;;;10.97;9.87;;;19.00;99.90;;;;;;5094614;28;20262;-75
2021/09/26 04:19:24;;;;;;;13.43;10.33;;;19.10;99.90;;;;;;5095551;28;20179;-74
2021/09/26 04:21:51;;;;;;;12.67;10.97;;;19.00;99.90;;;;;;5094462;28;20184;-75
2021/09/26 04:24:17;;;;;;;12.77;10.73;;;19.00;99.90;;;;;;5093532;28;20708;-76
2021/09/26 04:26:43;;;;;;;13.87;10.87;;;19.00;99.90;;;;;;5093515;28;20497;-74
2021/09/26 04:29:09;;;;;;;12.10;10.73;;;18.90;99.90;;;;;;5093432;28;20173;-75
2021/09/26 04:31:35;;;;;;;12.40;10.83;;;18.90;99.90;;;;;;5093863;28;20171;-80
2021/09/26 04:34:00;;;;;;;13.73;10.57;;;18.90;99.90;;;;;;5094509;28;20171;-77
2021/09/26 04:36:26;;;;;;;12.53;11.33;;;18.80;99.90;;;;;;5094340;28;20216;-75
2021/09/26 04:38:52;;;;;;;12.13;10.93;;;18.80;99.90;;;;;;5094320;28;20643;-75
2021/09/26 04:41:18;;;;;;;12.67;11.20;;;18.80;99.90;;;;;;5093561;28;20645;-75
2021/09/26 04:43:43;;;;;;;13.20;11.83;;;18.70;99.90;;;;;;5093647;28;20246;-77
2021/09/26 04:46:09;;;;;;;12.37;11.17;;;18.60;99.90;;;;;;5094192;28;20195;-77
2021/09/26 04:48:35;;;;;;;13.23;11.67;;;18.70;99.90;;;;;;5097213;28;20171;-74
2021/09/26 04:51:00;;;;;;;14.43;12.60;;;18.60;99.90;;;;;;5105743;28;20750;-75
2021/09/26 04:53:26;;;;;;;14.37;12.50;;;18.60;99.90;;;;;;5107340;28;20186;-76
2021/09/26 04:55:52;;;;;;;14.13;12.63;;;18.60;99.90;;;;;;5108662;28;20184;-73
2021/09/26 04:58:17;;;;;;;14.70;13.20;;;18.60;99.90;;;;;;5102952;28;20203;-76
2021/09/26 05:00:46;;;;;;;14.13;12.47;;;18.50;99.90;;;;;;5102803;28;20199;-77
2021/09/26 05:03:13;;;;;;;15.70;13.23;;;18.50;99.90;;;;;;5096151;28;20172;-80
2021/09/26 05:05:39;;;;;;;14.33;12.90;;;18.60;99.90;;;;;;5093341;28;20167;-75
2021/09/26 05:08:05;;;;;;;16.33;13.17;;;18.60;99.90;;;;;;5093964;28;20179;-80
2021/09/26 05:10:32;;;;;;;17.03;13.87;;;18.60;99.90;;;;;;5100517;28;20196;-75
2021/09/26 05:12:58;;;;;;;14.43;13.00;;;18.60;99.90;;;;;;5097382;28;20583;-77
2021/09/26 05:15:25;;;;;;;15.53;13.80;;;18.70;99.90;;;;;;5094458;28;20191;-76
2021/09/26 05:17:50;;;;;;;15.37;13.17;;;18.80;99.90;;;;;;5094167;28;20207;-77
2021/09/26 05:20:16;;;;;;;16.93;14.00;;;18.90;99.90;;;;;;5097777;28;20170;-77
2021/09/26 05:22:42;;;;;;;15.50;13.37;;;18.90;99.90;;;;;;5098866;28;20638;-74
2021/09/26 05:25:08;;;;;;;18.47;14.23;;;18.80;99.90;;;;;;5086282;28;20175;-75
2021/09/26 05:27:34;;;;;;;15.67;13.80;;;18.70;99.90;;;;;;5117830;28;20233;-73
2021/09/26 05:30:02;;;;;;;15.63;14.03;;;18.70;99.90;;;;;;5106607;28;20139;-75
2021/09/26 05:32:28;;;;;;;16.90;15.03;;;18.60;99.90;;;;;;5108941;28;20164;-75
2021/09/26 05:34:55;;;;;;;16.67;14.93;;;18.60;99.90;;;;;;5100202;28;20694;-75
2021/09/26 05:37:20;;;;;;;16.90;14.57;;;18.50;99.90;;;;;;5097571;28;20242;-76
2021/09/26 05:39:46;;;;;;;16.73;15.03;;;18.50;99.90;;;;;;5097221;28;20199;-76
2021/09/26 05:42:12;;;;;;;18.57;16.27;;;18.40;99.90;;;;;;5098897;28;20176;-75
2021/09/26 05:44:37;;;;;;;18.43;15.40;;;18.20;99.90;;;;;;5115144;28;20167;-73
2021/09/26 05:47:07;;;;;;;18.33;16.07;;;18.10;99.90;;;;;;5118322;28;20164;-75
2021/09/26 05:49:39;;;;;;;19.23;17.20;;;18.10;99.90;;;;;;5106389;28;20236;-76
2021/09/26 05:52:07;;;;;;;19.87;17.50;;;18.10;99.90;;;;;;5096901;28;20174;-77
2021/09/26 05:54:34;;;;;;;22.93;19.07;;;18.10;99.90;;;;;;5096805;28;20284;-76
2021/09/26 05:57:00;;;;;;;20.10;17.90;;;18.10;99.90;;;;;;5096394;28;20647;-77
2021/09/26 05:59:26;;;;;;;21.67;17.97;;;18.00;99.90;;;;;;5096400;28;20233;-77
2021/09/26 06:01:51;;;;;;;20.07;17.90;;;18.00;99.90;;;;;;5096373;28;20214;-76
2021/09/26 06:04:17;;;;;;;20.90;17.33;;;18.00;99.90;;;;;;5096586;28;20198;-76
2021/09/26 06:06:43;;;;;;;22.70;20.20;;;18.10;99.90;;;;;;5096239;28;20600;-76
2021/09/26 06:09:08;;;;;;;23.33;20.80;;;18.00;99.90;;;;;;5096334;28;20194;-76
2021/09/26 06:11:34;;;;;;;25.43;22.73;;;18.00;99.90;;;;;;5096333;28;20676;-75
2021/09/26 06:14:00;;;;;;;29.53;24.13;;;18.00;99.90;;;;;;5096276;28;20170;-75
2021/09/26 06:16:25;;;;;;;27.80;24.30;;;18.00;99.90;;;;;;5096744;28;20262;-75
2021/09/26 06:18:51;;;;;;;26.73;23.80;;;18.00;99.90;;;;;;5097928;28;20186;-75
2021/09/26 06:21:17;;;;;;;31.13;25.87;;;18.00;99.90;;;;;;5096233;28;20241;-75
2021/09/26 06:23:42;;;;;;;30.63;26.50;;;18.00;99.90;;;;;;5097180;28;20645;-75
2021/09/26 06:26:08;;;;;;;33.00;27.57;;;17.90;99.90;;;;;;5096535;28;20172;-83
2021/09/26 06:28:35;;;;;;;32.57;27.77;;;17.90;99.90;;;;;;5096795;28;20569;-82
2021/09/26 06:31:00;;;;;;;36.33;28.83;;;17.90;99.90;;;;;;5095277;28;20571;-82
2021/09/26 06:33:26;;;;;;;35.50;28.93;;;17.90;99.90;;;;;;5096115;28;20220;-83
2021/09/26 06:35:52;;;;;;;34.33;28.63;;;17.80;99.90;;;;;;5077719;28;20190;-83
2021/09/26 06:38:18;;;;;;;34.70;30.47;;;17.80;99.90;;;;;;5096286;28;20203;-84
2021/09/26 06:40:44;;;;;;;36.30;29.67;;;17.80;99.90;;;;;;5097157;28;20224;-76
2021/09/26 06:43:12;;;;;;;34.57;30.77;;;17.80;99.90;;;;;;5087247;28;20182;-76
2021/09/26 06:45:38;;;;;;;34.50;30.20;;;17.80;99.90;;;;;;5096244;28;20168;-80
2021/09/26 06:48:04;;;;;;;36.30;30.73;;;17.80;99.90;;;;;;5116846;28;20156;-81
2021/09/26 06:50:30;;;;;;;38.70;30.90;;;17.90;99.90;;;;;;5101087;28;20560;-83
2021/09/26 06:52:55;;;;;;;39.93;33.00;;;17.90;99.90;;;;;;5096681;28;20218;-80
2021/09/26 06:55:21;;;;;;;39.60;33.13;;;18.00;99.90;;;;;;5095897;28;20647;-83
2021/09/26 06:57:49;;;;;;;36.90;31.33;;;18.00;99.90;;;;;;5095542;28;20677;-77
2021/09/26 07:00:15;;;;;;;38.60;32.93;;;18.10;99.90;;;;;;5095866;28;20176;-83
2021/09/26 07:02:43;;;;;;;36.77;31.13;;;18.20;99.90;;;;;;5095382;28;20216;-84
2021/09/26 07:05:09;;;;;;;35.07;29.93;;;18.20;99.90;;;;;;5095572;28;20262;-82
2021/09/26 07:07:35;;;;;;;34.70;30.90;;;18.30;99.90;;;;;;5094826;28;20253;-79
2021/09/26 07:10:01;;;;;;;33.70;29.90;;;18.50;99.90;;;;;;5095588;28;20180;-83
2021/09/26 07:12:26;;;;;;;35.33;31.00;;;18.50;99.90;;;;;;5096471;28;20168;-81
2021/09/26 07:14:52;;;;;;;34.23;30.00;;;18.60;99.90;;;;;;5096936;28;20164;-81
2021/09/26 07:17:19;;;;;;;34.80;30.23;;;18.60;99.90;;;;;;5098960;28;20898;-83
2021/09/26 07:19:45;;;;;;;33.13;29.53;;;18.60;99.90;;;;;;5095785;28;20164;-77
2021/09/26 07:22:11;;;;;;;37.20;31.77;;;18.60;99.90;;;;;;5079732;28;20215;-79
2021/09/26 07:24:37;;;;;;;38.63;30.37;;;18.70;99.90;;;;;;5098422;28;20537;-81
2021/09/26 07:27:03;;;;;;;36.77;31.33;;;18.70;99.90;;;;;;5102501;28;20179;-84
2021/09/26 07:29:28;;;;;;;35.63;29.53;;;18.70;99.90;;;;;;5101086;28;20170;-80
2021/09/26 07:31:54;;;;;;;34.80;30.30;;;18.80;99.90;;;;;;5098000;28;20160;-80
2021/09/26 07:34:20;;;;;;;35.13;31.37;;;18.70;99.90;;;;;;5097483;28;20164;-82
2021/09/26 07:36:46;;;;;;;36.03;32.23;;;18.80;99.90;;;;;;5098040;28;20199;-83
2021/09/26 07:39:12;;;;;;;34.70;30.43;;;18.80;99.90;;;;;;5099884;28;20187;-83
2021/09/26 07:41:38;;;;;;;34.57;30.97;;;18.90;99.90;;;;;;5097831;28;20198;-84
2021/09/26 07:44:04;;;;;;;37.10;32.27;;;18.90;99.90;;;;;;5096716;28;20171;-78
2021/09/26 07:46:30;;;;;;;35.43;31.47;;;18.90;99.90;;;;;;5102253;28;20229;-82
2021/09/26 07:48:55;;;;;;;34.63;30.93;;;19.00;99.90;;;;;;5102328;28;20170;-80
2021/09/26 07:51:21;;;;;;;34.90;31.20;;;19.10;99.90;;;;;;5097873;28;20175;-81
2021/09/26 07:53:47;;;;;;;33.50;30.00;;;19.10;99.90;;;;;;5096450;28;20154;-75
2021/09/26 07:56:12;;;;;;;32.43;29.00;;;19.20;99.90;;;;;;5097132;28;20259;-76
2021/09/26 07:58:38;;;;;;;33.47;29.97;;;19.40;99.90;;;;;;5098539;28;20207;-76
2021/09/26 08:01:04;;;;;;;32.70;29.33;;;19.50;99.90;;;;;;5108569;28;20159;-83
2021/09/26 08:03:30;;;;;;;31.87;28.57;;;19.50;99.90;;;;;;5092418;28;20171;-77
2021/09/26 08:05:57;;;;;;;31.37;28.17;;;19.60;99.90;;;;;;5090507;28;20543;-75
2021/09/26 08:08:23;;;;;;;30.33;26.77;;;19.70;99.90;;;;;;5101602;28;20188;-81
2021/09/26 08:10:49;;;;;;;32.97;26.90;;;19.70;99.90;;;;;;5104080;28;20157;-84
2021/09/26 08:13:16;;;;;;;29.70;26.67;;;19.60;99.90;;;;;;5097907;28;20276;-80
2021/09/26 08:15:43;;;;;;;31.13;26.43;;;19.60;99.90;;;;;;5095367;28;20168;-76
2021/09/26 08:18:09;;;;;;;29.33;25.27;;;19.70;99.90;;;;;;5096014;28;20282;-80
2021/09/26 08:20:34;;;;;;;28.93;25.90;;;19.80;99.90;;;;;;5088928;28;20199;-75
2021/09/26 08:23:00;;;;;;;28.80;25.90;;;19.90;99.90;;;;;;5108038;28;20175;-80
2021/09/26 08:25:27;;;;;;;26.43;23.83;;;20.00;99.90;;;;;;5087586;28;20173;-78
2021/09/26 08:27:53;;;;;;;26.20;23.47;;;20.10;99.90;;;;;;5098978;28;20174;-79
2021/09/26 08:30:19;;;;;;;26.33;23.60;;;20.30;99.90;;;;;;5094082;28;20274;-78
2021/09/26 08:32:46;;;;;;;27.40;22.83;;;20.40;99.90;;;;;;5093872;28;20176;-75
2021/09/26 08:36:02;;;;;;;25.70;23.17;;;20.40;99.90;;;;;;5093902;28;20214;-76
2021/09/26 08:38:27;;;;;;;24.07;21.67;;;20.50;99.90;;;;;;5094686;28;20299;-82
2021/09/26 08:40:54;;;;;;;23.53;21.00;;;20.60;99.00;;;;;;5093988;28;20259;-77
2021/09/26 08:43:20;;;;;;;26.87;22.70;;;20.80;98.50;;;;;;5093920;28;20636;-79
2021/09/26 08:45:47;;;;;;;26.13;22.63;;;20.70;97.70;;;;;;5094228;28;20176;-83
2021/09/26 08:48:13;;;;;;;23.57;21.13;;;20.60;98.50;;;;;;5094419;28;20167;-83
2021/09/26 08:50:39;;;;;;;26.07;22.20;;;20.60;98.40;;;;;;5094181;28;20165;-76
2021/09/26 08:53:06;;;;;;;23.70;21.20;;;20.60;98.40;;;;;;5075852;28;20513;-77
2021/09/26 08:55:33;;;;;;;25.50;22.87;;;20.60;98.00;;;;;;5093771;28;20185;-77
2021/09/26 08:57:59;;;;;;;23.23;20.93;;;20.70;98.20;;;;;;5076040;28;20216;-76
2021/09/26 09:00:28;;;;;;;22.73;20.53;;;20.70;98.00;;;;;;5093823;28;20166;-77
2021/09/26 09:02:54;;;;;;;24.00;21.50;;;20.80;97.90;;;;;;5076167;28;20180;-80
2021/09/26 09:05:34;;;;;;;23.27;21.00;;;20.80;97.60;;;;;;5094909;28;20593;-76
2021/09/26 09:08:04;;;;;;;23.23;20.77;;;20.90;97.00;;;;;;5076141;28;20189;-81
2021/09/26 09:10:56;;;;;;;23.87;21.47;;;20.80;97.20;;;;;;5094339;28;20193;-82
2021/09/26 09:13:43;;;;;;;23.33;20.97;;;20.80;97.30;;;;;;5079931;28;20181;-77
2021/09/26 09:16:18;;;;;;;22.13;19.90;;;20.80;97.80;;;;;;5094726;28;20569;-82
2021/09/26 09:18:56;;;;;;;22.97;20.77;;;20.70;97.40;;;;;;5094425;28;20769;-76
2021/09/26 09:21:28;;;;;;;21.93;19.73;;;20.70;97.40;;;;;;5093937;28;20189;-78
2021/09/26 09:24:15;;;;;;;21.73;19.47;;;20.70;97.70;;;;;;5094178;28;20177;-81
2021/09/26 09:26:44;;;;;;;19.80;17.90;;;20.70;97.40;;;;;;5094092;28;20212;-77
2021/09/26 09:29:10;;;;;;;19.47;17.57;;;20.60;96.70;;;;;;5093855;28;20196;-77
2021/09/26 09:31:50;;;;;;;18.07;16.33;;;20.50;96.90;;;;;;5093774;28;20256;-75
2021/09/26 09:34:40;;;;;;;18.37;16.47;;;20.50;96.70;;;;;;5076049;28;20176;-77
2021/09/26 09:37:23;;;;;;;18.03;16.17;;;20.70;95.40;;;;;;5093312;28;20536;-75
2021/09/26 09:40:06;;;;;;;16.57;14.97;;;20.70;95.20;;;;;;5093830;28;20547;-75
2021/09/26 09:42:47;;;;;;;16.90;15.10;;;20.70;94.50;;;;;;5093372;28;20642;-76
2021/09/26 09:45:20;;;;;;;16.90;15.13;;;20.80;93.50;;;;;;5093261;28;20637;-76
2021/09/26 09:48:12;;;;;;;15.87;14.27;;;21.00;92.30;;;;;;5093381;28;20205;-82
2021/09/26 09:50:46;;;;;;;15.20;13.77;;;21.20;91.00;;;;;;5075722;28;20160;-75
2021/09/26 09:53:26;;;;;;;15.07;13.37;;;21.20;90.10;;;;;;5093235;28;20531;-76
2021/09/26 09:56:07;;;;;;;14.33;12.83;;;21.30;90.30;;;;;;5093339;28;20574;-77
2021/09/26 09:58:43;;;;;;;14.33;12.53;;;21.40;90.00;;;;;;5093174;28;20208;-76
2021/09/26 10:01:13;;;;;;;14.50;13.10;;;21.30;90.50;;;;;;5093717;28;20165;-79
2021/09/26 10:03:50;;;;;;;13.43;12.00;;;21.30;91.00;;;;;;5094071;28;20175;-75
2021/09/26 10:06:32;;;;;;;14.57;12.27;;;21.30;91.20;;;;;;5098315;28;20169;-77
2021/09/26 10:09:00;;;;;;;15.13;13.10;;;21.40;90.50;;;;;;5104528;28;20189;-77
2021/09/26 10:11:27;;;;;;;13.33;11.83;;;21.40;90.90;;;;;;5096648;28;20174;-80
2021/09/26 10:13:54;;;;;;;12.73;11.43;;;21.30;91.00;;;;;;5096860;28;20175;-80
2021/09/26 10:16:21;;;;;;;13.87;11.60;;;21.30;91.40;;;;;;5097097;28;20170;-77
2021/09/26 10:18:47;;;;;;;14.93;11.33;;;21.40;90.60;;;;;;5099851;28;20297;-78
2021/09/26 10:21:13;;;;;;;12.80;11.50;;;21.50;90.10;;;;;;5100108;28;20196;-80
2021/09/26 10:23:44;;;;;;;14.00;10.90;;;21.40;88.80;;;;;;5103448;28;20232;-77
2021/09/26 10:26:10;;;;;;;10.73;9.43;;;21.20;89.30;;;;;;5086345;28;20174;-76
2021/09/26 10:28:36;;;;;;;10.73;9.63;;;21.10;90.30;;;;;;5104494;28;20203;-79
2021/09/26 10:31:04;;;;;;;11.37;10.13;;;21.20;90.50;;;;;;5101872;28;20167;-77
2021/09/26 10:33:32;;;;;;;12.67;9.30;;;21.20;90.60;;;;;;5081301;28;20179;-82
2021/09/26 10:36:00;;;;;;;11.70;9.30;;;21.20;90.60;;;;;;5097436;28;20242;-82
2021/09/26 10:38:32;;;;;;;10.37;9.13;;;21.20;90.70;;;;;;5096765;28;20672;-79
2021/09/26 10:41:05;;;;;;;10.67;9.57;;;21.20;91.10;;;;;;5110829;28;20188;-74
2021/09/26 10:43:31;;;;;;;11.03;8.80;;;21.20;90.40;;;;;;5102618;28;20166;-82
2021/09/26 10:46:18;;;;;;;9.50;8.47;;;21.10;90.90;;;;;;5081743;28;20681;-79
2021/09/26 10:49:13;;;;;;;9.80;8.70;;;21.10;90.60;;;;;;5096652;28;20173;-83
2021/09/26 10:51:44;;;;;;;10.43;9.43;;;21.20;88.20;;;;;;5097389;28;20159;-83
2021/09/26 10:54:22;;;;;;;10.63;9.27;;;21.30;87.10;;;;;;5107875;28;20176;-75
2021/09/26 10:56:50;;;;;;;10.60;9.53;;;21.40;86.50;;;;;;5116395;28;20273;-78
2021/09/26 10:59:16;;;;;;;10.30;9.20;;;21.50;86.20;;;;;;5115553;28;20166;-79
2021/09/26 11:01:47;;;;;;;9.90;8.87;;;21.60;85.40;;;;;;5110227;28;20193;-76
2021/09/26 11:04:38;;;;;;;9.00;8.10;;;21.70;83.50;;;;;;5101402;28;20538;-82
2021/09/26 11:07:28;;;;;;;10.40;9.23;;;21.90;80.80;;;;;;5096529;28;20268;-79
2021/09/26 11:09:59;;;;;;;10.60;9.57;;;21.90;81.40;;;;;;5088619;28;20182;-80
2021/09/26 11:12:43;;;;;;;10.10;8.23;;;22.00;79.40;;;;;;5095405;28;20168;-77
2021/09/26 11:15:11;;;;;;;8.90;7.17;;;22.10;78.90;;;;;;5095685;28;20180;-78
2021/09/26 11:17:54;;;;;;;8.23;7.07;;;22.10;79.80;;;;;;5094683;28;20535;-82
2021/09/26 11:20:26;;;;;;;8.00;6.97;;;22.10;78.30;;;;;;5095503;28;20600;-77
2021/09/26 11:23:18;;;;;;;9.37;6.80;;;22.00;78.90;;;;;;5096055;28;20222;-78
2021/09/26 11:26:03;;;;;;;11.63;9.73;;;22.00;79.00;;;;;;5072282;28;20221;-77
2021/09/26 11:28:40;;;;;;;8.67;7.70;;;22.10;78.60;;;;;;5077977;28;20173;-82
2021/09/26 11:31:30;;;;;;;10.23;8.93;;;22.00;79.60;;;;;;5097959;28;20183;-79
2021/09/26 11:33:57;;;;;;;10.30;7.47;;;22.20;80.30;;;;;;5077028;28;20171;-78
2021/09/26 11:36:25;;;;;;;7.37;6.40;;;22.40;76.60;;;;;;5095875;28;20232;-78
2021/09/26 11:38:51;;;;;;;10.77;6.83;;;22.40;76.70;;;;;;5095556;28;20639;-77
2021/09/26 11:41:33;;;;;;;8.70;6.40;;;22.50;75.80;;;;;;5095131;28;20240;-84
2021/09/26 11:44:18;;;;;;;8.07;6.80;;;22.50;73.80;;;;;;5095543;28;20760;-77
2021/09/26 11:46:48;;;;;;;7.50;5.97;;;22.50;73.30;;;;;;5096719;28;20668;-79
2021/09/26 11:49:14;;;;;;;7.77;6.33;;;22.40;75.90;;;;;;5094874;28;20182;-78
2021/09/26 11:51:40;;;;;;;8.37;6.70;;;22.50;75.70;;;;;;5095013;28;20596;-77
2021/09/26 11:54:06;;;;;;;8.63;5.40;;;22.60;73.70;;;;;;5078629;28;20172;-77
2021/09/26 11:56:35;;;;;;;7.83;4.87;;;22.70;71.90;;;;;;5111709;28;20185;-76
2021/09/26 11:59:10;;;;;;;6.93;5.23;;;22.70;72.00;;;;;;5114547;28;20636;-78
2021/09/26 12:01:37;;;;;;;6.83;5.20;;;22.70;73.10;;;;;;5118050;28;20167;-82
2021/09/26 12:04:13;;;;;;;12.27;9.63;;;22.60;73.70;;;;;;5116543;28;20190;-79
2021/09/26 12:06:44;;;;;;;9.83;6.97;;;22.60;73.20;;;;;;5100510;28;20197;-77
2021/09/26 12:09:15;;;;;;;8.57;5.43;;;22.70;73.50;;;;;;5075996;28;20194;-78
2021/09/26 12:11:48;;;;;;;6.53;4.83;;;22.90;70.10;;;;;;5094503;28;20251;-76
2021/09/26 12:14:21;;;;;;;19.07;14.67;;;23.00;69.70;;;;;;5094855;28;20570;-80
2021/09/26 12:16:47;;;;;;;6.83;4.60;;;23.00;70.10;;;;;;5094646;28;20668;-75
2021/09/26 12:19:13;;;;;;;8.33;4.77;;;23.00;69.20;;;;;;5094870;28;20188;-78
2021/09/26 12:21:39;;;;;;;8.03;4.70;;;22.90;69.70;;;;;;5094572;28;20248;-82
2021/09/26 12:24:09;;;;;;;6.27;4.80;;;22.90;70.50;;;;;;5094259;28;20176;-79
2021/09/26 12:26:42;;;;;;;5.07;4.10;;;22.90;71.10;;;;;;5076016;28;20176;-79
2021/09/26 12:29:28;;;;;;;7.73;4.33;;;23.00;71.90;;;;;;5093478;28;20164;-76
2021/09/26 12:31:57;;;;;;;7.00;4.50;;;23.10;69.00;;;;;;5076566;28;20289;-83
2021/09/26 12:34:23;;;;;;;5.37;4.27;;;23.20;67.80;;;;;;5094459;28;20177;-77
2021/09/26 12:36:49;;;;;;;4.53;4.03;;;23.40;65.40;;;;;;5094011;28;20311;-77
2021/09/26 12:39:45;;;;;;;7.23;4.30;;;23.40;63.80;;;;;;5093671;28;20260;-77
2021/09/26 12:42:50;;;;;;;6.07;4.27;;;23.40;65.80;;;;;;5067475;28;20633;-75
2021/09/26 12:45:36;;;;;;;5.40;4.10;;;23.30;63.70;;;;;;5094618;28;20156;-80
2021/09/26 12:48:03;;;;;;;6.00;4.37;;;23.20;65.70;;;;;;5098126;28;20219;-79